Kezdőlap
METAR-TAF:

METAR-TAF

Repülőterek :

Ardmore Downtown Executive Airport

Ardmore, Oklahoma, Amerikai Egyesült Államok

földrajzi szélesség: 34-08-49N, földrajzi hosszúság: 097-07-21W, magasság: 257 m

Jelenlegi meteorológiai megfigyelések

A jelentés 44 perccel ezelõtt készült, 17:55 UTC
Dél-délkeleti szél 9 kt
Hőmérséklet 34°C
Páratartalom 39%
Légköri nyomás 1019 hPa
Látótávolság: 11.3 km
Derült ég
Száraz légköri homály

METAR: K1F0 121755Z AUTO 15009KT 7SM HZ CLR 34/18 A3009 RMK AO2 T03370183 10339 20236

Idő: 13:39 (18:39 UTC)


TAF: hiányzik

Meteorológiai megfigyelések és előrejelzések több, mint 4000 repülőtéren (METAR és TAF jelentéseket).

A térképen piros és sárga pontok jelzik az elérhető meteorológiai állomásokat.

Mozgassa az egeret a pont fölött, hogy megjelenjen az állomás neve.

Azután kattintson az időjárási megfigyelések és előrejelzések megtekintéséhez.

A térkép megváltoztatása: kattintson a fekete keresztel jelölt zöld gombra ráközelítéshez, a vonallal jelölt zöld gombra távolításhoz, vagy a zöld nyilakra a szomszédos térképek eléréséhez.


METAR-TAF: